createdAt,value
2022-09-15T00:01:03.234Z,73.40
2022-09-15T00:03:30.121Z,73.40
2022-09-15T00:05:56.851Z,73.50
2022-09-15T00:08:24.114Z,73.50
2022-09-15T00:10:52.585Z,73.50
2022-09-15T00:13:19.479Z,73.50
2022-09-15T00:15:46.182Z,73.60
2022-09-15T00:18:12.915Z,73.60
2022-09-15T00:20:40.347Z,73.50
2022-09-15T00:23:06.961Z,73.50
2022-09-15T00:25:33.583Z,73.50
2022-09-15T00:28:00.257Z,73.60
2022-09-15T00:30:27.001Z,73.50
2022-09-15T00:32:53.741Z,73.60
2022-09-15T00:35:20.356Z,73.60
2022-09-15T00:37:46.983Z,73.50
2022-09-15T00:40:13.719Z,73.70
2022-09-15T00:42:40.397Z,73.60
2022-09-15T00:45:14.294Z,73.60
2022-09-15T00:47:41.002Z,73.50
2022-09-15T00:50:11.136Z,73.40
2022-09-15T00:52:42.077Z,73.40
2022-09-15T00:55:12.175Z,73.30
2022-09-15T00:57:38.790Z,73.30
2022-09-15T01:00:07.759Z,73.40
2022-09-15T01:02:36.101Z,73.40
2022-09-15T01:05:04.858Z,73.30
2022-09-15T01:07:43.148Z,73.30
2022-09-15T01:10:19.129Z,73.30
2022-09-15T01:12:45.810Z,73.30
2022-09-15T01:15:12.687Z,73.30
2022-09-15T01:17:39.469Z,73.30
2022-09-15T01:20:09.171Z,71.90
2022-09-15T01:23:08.317Z,73.30
2022-09-15T01:25:37.997Z,73.30
2022-09-15T01:28:10.735Z,73.30
2022-09-15T01:30:48.144Z,73.40
2022-09-15T01:33:21.648Z,73.30
2022-09-15T01:36:02.735Z,73.30
2022-09-15T01:38:47.757Z,73.40
2022-09-15T01:41:16.660Z,73.30
2022-09-15T01:43:49.418Z,73.40
2022-09-15T01:46:19.867Z,73.30
2022-09-15T01:48:47.444Z,73.30
2022-09-15T01:51:14.317Z,73.30
2022-09-15T01:53:41.093Z,73.30
2022-09-15T01:56:11.761Z,73.30
2022-09-15T01:58:39.772Z,73.30
2022-09-15T02:01:09.144Z,73.30
2022-09-15T02:03:44.278Z,73.30
2022-09-15T02:06:19.635Z,73.40
2022-09-15T02:09:02.802Z,73.40
2022-09-15T02:11:30.436Z,73.40
2022-09-15T02:14:03.903Z,73.30
2022-09-15T02:16:33.790Z,73.30
2022-09-15T02:19:19.754Z,73.40
2022-09-15T02:21:53.280Z,73.30
2022-09-15T02:24:23.588Z,73.20
2022-09-15T02:26:52.029Z,73.20
2022-09-15T02:29:19.775Z,73.20
2022-09-15T02:31:47.311Z,73.20
2022-09-15T02:34:17.357Z,73.20
2022-09-15T02:36:44.576Z,73.20
2022-09-15T02:39:13.536Z,73.70
2022-09-15T02:41:40.743Z,73.10
2022-09-15T02:44:08.707Z,73.20
2022-09-15T02:46:35.671Z,73.20
2022-09-15T02:49:02.562Z,73.20
2022-09-15T02:51:29.439Z,73.00
2022-09-15T02:53:56.132Z,73.10
2022-09-15T02:56:22.784Z,73.20
2022-09-15T02:58:49.415Z,73.10
2022-09-15T03:01:16.161Z,73.10
2022-09-15T03:03:43.943Z,73.10
2022-09-15T03:06:17.477Z,73.10
2022-09-15T03:08:49.689Z,73.10
2022-09-15T03:11:17.106Z,73.10
2022-09-15T03:13:43.802Z,73.10
2022-09-15T03:16:11.395Z,73.20
2022-09-15T03:18:38.508Z,73.10
2022-09-15T03:21:06.394Z,73.20
2022-09-15T03:23:33.034Z,73.20
2022-09-15T03:25:59.660Z,73.10
2022-09-15T03:28:26.698Z,73.20
2022-09-15T03:30:53.758Z,73.30
2022-09-15T03:33:21.258Z,73.10
2022-09-15T03:35:48.943Z,73.20
2022-09-15T03:38:16.071Z,73.20
2022-09-15T03:40:46.161Z,73.20
2022-09-15T03:43:16.689Z,73.10
2022-09-15T03:45:45.370Z,73.00
2022-09-15T03:48:12.007Z,73.10
2022-09-15T03:50:38.654Z,73.10
2022-09-15T03:53:05.308Z,73.00
2022-09-15T03:55:31.903Z,72.90
2022-09-15T03:57:58.533Z,73.00
2022-09-15T04:00:25.146Z,73.00
2022-09-15T04:02:51.817Z,72.90
2022-09-15T04:05:18.426Z,72.90
2022-09-15T04:07:45.029Z,72.90
2022-09-15T04:10:11.705Z,72.90
2022-09-15T04:12:38.410Z,72.90
2022-09-15T04:15:05.288Z,73.00
2022-09-15T04:17:32.054Z,72.90
2022-09-15T04:19:58.689Z,72.90
2022-09-15T04:22:25.289Z,73.00
2022-09-15T04:24:52.170Z,73.00
2022-09-15T04:27:18.956Z,72.90
2022-09-15T04:29:46.169Z,73.00
2022-09-15T04:32:12.762Z,73.00
2022-09-15T04:34:41.463Z,73.10
2022-09-15T04:37:08.306Z,73.00
2022-09-15T04:39:35.006Z,73.10
2022-09-15T04:42:05.165Z,73.30
2022-09-15T04:44:32.401Z,73.00
2022-09-15T04:46:59.184Z,73.30
2022-09-15T04:49:25.912Z,73.20
2022-09-15T04:51:55.532Z,73.10
2022-09-15T04:54:22.152Z,73.30
2022-09-15T04:56:49.376Z,73.10
2022-09-15T04:59:17.175Z,73.10
2022-09-15T05:01:43.938Z,73.00
2022-09-15T05:04:10.687Z,73.00
2022-09-15T05:06:38.038Z,72.90
2022-09-15T05:09:10.095Z,72.90
2022-09-15T05:11:37.288Z,72.90
2022-09-15T05:14:03.951Z,72.90
2022-09-15T05:16:31.414Z,72.90
2022-09-15T05:18:59.571Z,72.90
2022-09-15T05:21:26.935Z,72.80
2022-09-15T05:23:54.078Z,72.90
2022-09-15T05:26:22.151Z,72.90
2022-09-15T05:28:48.894Z,72.90
2022-09-15T05:31:18.079Z,72.90
2022-09-15T05:33:45.529Z,73.00
2022-09-15T05:36:14.297Z,72.90
2022-09-15T05:38:41.394Z,72.90
2022-09-15T05:41:10.184Z,72.90
2022-09-15T05:43:37.241Z,73.00
2022-09-15T05:46:04.324Z,73.00
2022-09-15T05:48:31.334Z,73.10
2022-09-15T05:50:58.455Z,73.00
2022-09-15T05:53:25.266Z,73.10
2022-09-15T05:55:59.100Z,73.10
2022-09-15T05:58:27.650Z,73.00
2022-09-15T06:00:54.580Z,73.10
2022-09-15T06:03:21.762Z,73.00
2022-09-15T06:05:48.471Z,73.20
2022-09-15T06:08:15.122Z,73.00
2022-09-15T06:10:41.961Z,72.90
2022-09-15T06:13:08.657Z,72.90
2022-09-15T06:15:35.461Z,72.90
2022-09-15T06:18:02.736Z,73.50
2022-09-15T06:20:29.397Z,72.90
2022-09-15T06:22:56.573Z,73.40
2022-09-15T06:25:23.240Z,72.80
2022-09-15T06:27:50.430Z,72.70
2022-09-15T06:30:17.944Z,72.50
2022-09-15T06:32:48.238Z,72.50
2022-09-15T06:35:15.343Z,72.40
2022-09-15T06:37:41.984Z,72.40
2022-09-15T06:40:09.007Z,72.40
2022-09-15T06:42:35.716Z,72.30
2022-09-15T06:45:03.062Z,72.30
2022-09-15T06:47:33.946Z,72.30
2022-09-15T06:50:01.056Z,72.30
2022-09-15T06:52:27.785Z,72.40
2022-09-15T06:54:54.442Z,72.30
2022-09-15T06:57:21.114Z,72.40
2022-09-15T06:59:47.755Z,72.40
2022-09-15T07:02:14.543Z,72.60
2022-09-15T07:04:41.317Z,72.50
2022-09-15T07:07:08.108Z,72.50
2022-09-15T07:09:34.732Z,72.50
2022-09-15T07:12:01.560Z,72.60
2022-09-15T07:14:28.229Z,72.60
2022-09-15T07:16:54.975Z,72.70
2022-09-15T07:19:21.792Z,72.70
2022-09-15T07:21:48.439Z,72.70
2022-09-15T07:24:15.267Z,72.90
2022-09-15T07:26:42.062Z,72.90
2022-09-15T07:29:09.772Z,73.50
2022-09-15T07:31:38.343Z,72.80
2022-09-15T07:34:05.331Z,72.90
2022-09-15T07:36:32.034Z,72.90
2022-09-15T07:38:58.719Z,73.00
2022-09-15T07:41:26.655Z,73.00
2022-09-15T07:43:54.281Z,73.10
2022-09-15T07:46:22.005Z,73.20
2022-09-15T07:48:49.563Z,73.10
2022-09-15T07:51:16.589Z,73.10
2022-09-15T07:53:44.034Z,73.10
2022-09-15T07:56:10.774Z,73.00
2022-09-15T07:58:37.442Z,73.00
2022-09-15T08:01:05.226Z,72.90
2022-09-15T08:03:32.034Z,72.90
2022-09-15T08:06:01.639Z,72.90
2022-09-15T08:08:28.595Z,73.50
2022-09-15T08:10:55.697Z,72.80
2022-09-15T08:13:22.497Z,72.80
2022-09-15T08:15:49.209Z,72.80
2022-09-15T08:18:16.022Z,73.10
2022-09-15T08:20:43.157Z,72.90
2022-09-15T08:23:11.146Z,72.90
2022-09-15T08:25:41.079Z,72.90
2022-09-15T08:28:08.267Z,72.90
2022-09-15T08:30:35.387Z,72.90
2022-09-15T08:33:02.214Z,72.90
2022-09-15T08:35:29.311Z,72.80
2022-09-15T08:37:55.954Z,72.80
2022-09-15T08:40:25.388Z,72.90
2022-09-15T08:42:55.288Z,72.90
2022-09-15T08:45:26.286Z,72.90
2022-09-15T08:47:56.103Z,72.90
2022-09-15T08:50:44.767Z,72.90
2022-09-15T08:53:14.531Z,72.90
2022-09-15T08:55:45.538Z,72.80
2022-09-15T08:58:31.896Z,72.80
2022-09-15T09:01:07.776Z,72.80
2022-09-15T09:03:48.291Z,72.90
2022-09-15T09:06:35.183Z,72.90
2022-09-15T09:09:11.994Z,72.90
2022-09-15T09:11:47.332Z,72.90
2022-09-15T09:14:23.422Z,72.90
2022-09-15T09:16:53.248Z,72.90
2022-09-15T09:19:19.912Z,72.90
2022-09-15T09:21:48.523Z,72.90
2022-09-15T09:24:17.048Z,72.90
2022-09-15T09:26:46.119Z,72.90
2022-09-15T09:29:15.871Z,73.00
2022-09-15T09:31:43.111Z,73.00
2022-09-15T09:34:22.897Z,73.10
2022-09-15T09:36:54.854Z,73.10
2022-09-15T09:39:22.701Z,73.10
2022-09-15T09:41:50.908Z,73.10
2022-09-15T09:44:17.943Z,72.90
2022-09-15T09:46:45.055Z,72.90
2022-09-15T09:49:16.861Z,72.80
2022-09-15T09:51:53.848Z,72.80
2022-09-15T09:54:25.067Z,73.40
2022-09-15T09:56:53.129Z,72.70
2022-09-15T09:59:38.744Z,72.80
2022-09-15T10:02:05.597Z,72.70
2022-09-15T10:04:32.237Z,72.70
2022-09-15T10:06:59.445Z,72.70
2022-09-15T10:09:31.207Z,72.70
2022-09-15T10:12:01.542Z,72.60
2022-09-15T10:14:30.050Z,72.70
2022-09-15T10:17:10.642Z,72.50
2022-09-15T10:19:57.569Z,72.60
2022-09-15T10:22:35.566Z,72.60
2022-09-15T10:25:04.194Z,72.60
2022-09-15T10:27:32.985Z,72.50
2022-09-15T10:30:13.489Z,72.50
2022-09-15T10:32:40.774Z,72.40
2022-09-15T10:35:11.390Z,72.30
2022-09-15T10:37:56.879Z,72.30
2022-09-15T10:40:42.422Z,72.30
2022-09-15T10:43:27.993Z,72.40
2022-09-15T10:46:05.921Z,72.40
2022-09-15T10:48:36.871Z,72.50
2022-09-15T10:51:22.279Z,72.50
2022-09-15T10:53:59.782Z,72.40
2022-09-15T10:56:39.650Z,72.10
2022-09-15T10:59:22.103Z,72.10
2022-09-15T11:01:59.042Z,71.90
2022-09-15T11:04:25.692Z,71.60
2022-09-15T11:07:19.136Z,71.60
2022-09-15T11:10:09.104Z,71.50
2022-09-15T11:12:43.523Z,71.50
2022-09-15T11:15:10.298Z,71.40
2022-09-15T11:17:46.140Z,71.40
2022-09-15T11:20:29.231Z,71.40
2022-09-15T11:23:14.509Z,71.20
2022-09-15T11:25:43.802Z,71.10
2022-09-15T11:28:28.846Z,71.10
2022-09-15T11:30:58.711Z,71.20
2022-09-15T11:33:37.747Z,71.20
2022-09-15T11:36:07.559Z,71.20
2022-09-15T11:38:34.523Z,71.30
2022-09-15T11:41:19.880Z,71.20
2022-09-15T11:44:06.079Z,71.10
2022-09-15T11:46:58.382Z,71.10
2022-09-15T11:49:27.905Z,71.10
2022-09-15T11:52:02.130Z,71.10
2022-09-15T11:54:32.370Z,71.20
2022-09-15T11:56:59.433Z,71.20
2022-09-15T11:59:32.571Z,71.80
2022-09-15T12:02:07.923Z,71.00
2022-09-15T12:04:37.771Z,71.10
2022-09-15T12:07:31.686Z,71.00
2022-09-15T12:10:04.798Z,70.90
2022-09-15T12:12:32.596Z,71.10
2022-09-15T12:14:59.284Z,71.10
2022-09-15T12:17:35.446Z,71.20
2022-09-15T12:20:06.203Z,71.20
2022-09-15T12:22:40.169Z,71.10
2022-09-15T12:25:16.463Z,70.90
2022-09-15T12:27:43.133Z,71.00
2022-09-15T12:30:29.788Z,71.30
2022-09-15T12:32:56.476Z,71.30
2022-09-15T12:35:23.066Z,71.20
2022-09-15T12:37:53.659Z,71.20
2022-09-15T12:40:35.717Z,71.30
2022-09-15T12:43:25.688Z,71.40
2022-09-15T12:45:54.246Z,71.30
2022-09-15T12:48:22.763Z,71.40
2022-09-15T12:51:18.951Z,71.30
2022-09-15T12:53:53.255Z,71.30
2022-09-15T12:56:24.718Z,71.40
2022-09-15T12:58:52.148Z,71.30
2022-09-15T13:01:19.131Z,71.40
2022-09-15T13:03:46.246Z,71.40
2022-09-15T13:06:20.932Z,71.50
2022-09-15T13:08:51.335Z,71.30
2022-09-15T13:11:24.216Z,71.30
2022-09-15T13:14:03.340Z,71.20
2022-09-15T13:16:43.775Z,71.30
2022-09-15T13:19:13.844Z,71.00
2022-09-15T13:21:42.132Z,71.00
2022-09-15T13:24:15.279Z,71.00
2022-09-15T13:26:44.688Z,71.10
2022-09-15T13:29:14.430Z,70.90
2022-09-15T13:32:01.299Z,70.90
2022-09-15T13:38:15.039Z,70.70
2022-09-15T13:40:37.170Z,70.50
2022-09-15T13:43:13.270Z,70.50
2022-09-15T13:45:45.884Z,70.50
2022-09-15T13:48:31.548Z,70.50
2022-09-15T13:51:05.929Z,70.60
2022-09-15T13:53:36.331Z,70.50
2022-09-15T13:56:05.985Z,70.40
2022-09-15T14:01:22.902Z,70.50
2022-09-15T14:03:54.894Z,70.50
2022-09-15T14:06:25.889Z,70.70
2022-09-15T14:09:00.911Z,70.60
2022-09-15T14:11:34.974Z,70.70
2022-09-15T14:14:01.802Z,70.70
2022-09-15T14:16:30.663Z,70.70
2022-09-15T14:18:58.573Z,70.60
2022-09-15T14:21:26.560Z,70.70
2022-09-15T14:23:55.097Z,70.70
2022-09-15T14:26:26.636Z,70.70
2022-09-15T14:28:57.289Z,70.70
2022-09-15T14:31:34.774Z,70.70
2022-09-15T14:34:06.372Z,70.90
2022-09-15T14:36:33.883Z,70.80
2022-09-15T14:39:03.735Z,70.90
2022-09-15T14:41:33.442Z,71.10
2022-09-15T14:44:00.026Z,70.80
2022-09-15T14:46:35.223Z,70.10
2022-09-15T14:49:08.519Z,69.80
2022-09-15T14:51:35.617Z,70.10
2022-09-15T14:54:03.159Z,70.10
2022-09-15T14:56:32.085Z,70.30
2022-09-15T14:59:01.758Z,69.90
2022-09-15T15:01:28.438Z,69.80
2022-09-15T15:04:13.543Z,70.40
2022-09-15T15:06:53.504Z,70.20
2022-09-15T15:09:26.170Z,70.30
2022-09-15T15:12:00.543Z,70.20
2022-09-15T15:14:27.797Z,70.40
2022-09-15T15:17:02.346Z,70.40
2022-09-15T15:19:42.104Z,70.40
2022-09-15T15:22:11.526Z,70.40
2022-09-15T15:24:42.786Z,70.20
2022-09-15T15:27:28.038Z,70.40
2022-09-15T15:29:54.681Z,70.50
2022-09-15T15:32:22.229Z,70.40
2022-09-15T15:34:58.446Z,70.20
2022-09-15T15:37:25.344Z,68.60
2022-09-15T15:39:52.209Z,69.40
2022-09-15T15:42:24.125Z,69.40
2022-09-15T15:45:09.713Z,70.00
2022-09-15T15:47:36.963Z,70.00
2022-09-15T15:50:14.767Z,70.10
2022-09-15T15:52:41.859Z,69.80
2022-09-15T15:55:08.532Z,69.90
2022-09-15T15:57:37.318Z,69.80
2022-09-15T16:00:07.351Z,70.00
2022-09-15T16:02:33.942Z,70.10
2022-09-15T16:05:00.810Z,70.20
2022-09-15T16:07:33.185Z,69.90
2022-09-15T16:10:00.263Z,70.00
2022-09-15T16:12:30.708Z,70.00
2022-09-15T16:14:59.867Z,70.30
2022-09-15T16:17:26.578Z,70.40
2022-09-15T16:19:53.223Z,70.10
2022-09-15T16:22:23.287Z,70.10
2022-09-15T16:24:49.871Z,70.10
2022-09-15T16:27:17.695Z,70.20
2022-09-15T16:29:44.978Z,70.30
2022-09-15T16:32:18.537Z,70.40
2022-09-15T16:34:45.557Z,70.50
2022-09-15T16:37:12.239Z,70.50
2022-09-15T16:39:38.866Z,70.40
2022-09-15T16:42:05.628Z,70.50
2022-09-15T16:44:32.219Z,70.60
2022-09-15T16:46:58.898Z,70.80
2022-09-15T16:49:26.063Z,70.90
2022-09-15T16:51:52.883Z,70.90
2022-09-15T16:54:22.713Z,70.90
2022-09-15T16:56:49.307Z,71.00
2022-09-15T16:59:15.915Z,71.20
2022-09-15T17:01:42.603Z,71.00
2022-09-15T17:04:12.819Z,71.00
2022-09-15T17:06:39.448Z,71.20
2022-09-15T17:09:06.057Z,71.20
2022-09-15T17:11:32.749Z,71.30
2022-09-15T17:13:59.367Z,71.30
2022-09-15T17:16:26.803Z,71.30
2022-09-15T17:18:53.476Z,71.20
2022-09-15T17:21:20.369Z,71.30
2022-09-15T17:23:48.391Z,71.30
2022-09-15T17:26:20.154Z,71.30
2022-09-15T17:28:47.032Z,71.30
2022-09-15T17:31:16.738Z,71.30
2022-09-15T17:33:43.748Z,71.30
2022-09-15T17:36:10.773Z,71.30
2022-09-15T17:38:37.565Z,71.30
2022-09-15T17:41:04.258Z,71.30
2022-09-15T17:43:31.504Z,71.70
2022-09-15T17:45:58.314Z,71.30
2022-09-15T17:48:25.331Z,71.40
2022-09-15T17:50:52.364Z,71.40
2022-09-15T17:53:24.084Z,71.30
2022-09-15T17:55:51.003Z,71.30
2022-09-15T17:58:18.299Z,71.10
2022-09-15T18:00:45.743Z,71.10
2022-09-15T18:03:27.849Z,70.90
2022-09-15T18:05:58.534Z,70.80
2022-09-15T18:08:25.382Z,70.80
2022-09-15T18:10:52.141Z,70.80
2022-09-15T18:13:22.709Z,70.80
2022-09-15T18:15:49.526Z,70.70
2022-09-15T18:18:17.846Z,70.70
2022-09-15T18:20:44.584Z,70.70
2022-09-15T18:23:15.488Z,70.70
2022-09-15T18:25:42.690Z,70.70
2022-09-15T18:28:09.994Z,70.70
2022-09-15T18:30:40.726Z,70.70
2022-09-15T18:33:08.507Z,70.70
2022-09-15T18:35:35.118Z,70.60
2022-09-15T18:38:01.723Z,70.70
2022-09-15T18:40:28.371Z,70.80
2022-09-15T18:42:56.516Z,70.90
2022-09-15T18:45:23.177Z,70.90
2022-09-15T18:47:50.557Z,70.90
2022-09-15T18:50:18.398Z,71.00
2022-09-15T18:52:45.017Z,71.00
2022-09-15T18:55:14.675Z,71.00
2022-09-15T18:57:41.715Z,71.00
2022-09-15T19:00:13.086Z,71.00
2022-09-15T19:02:39.931Z,71.00
2022-09-15T19:05:07.170Z,71.00
2022-09-15T19:07:33.934Z,71.00
2022-09-15T19:10:00.677Z,71.00
2022-09-15T19:12:27.346Z,71.10
2022-09-15T19:14:54.595Z,71.20
2022-09-15T19:17:21.611Z,71.20
2022-09-15T19:19:48.247Z,71.20
2022-09-15T19:22:14.838Z,71.20
2022-09-15T19:24:41.450Z,71.40
2022-09-15T19:27:08.570Z,71.20
2022-09-15T19:29:35.815Z,71.20
2022-09-15T19:32:03.798Z,71.30
2022-09-15T19:34:30.483Z,71.20
2022-09-15T19:36:57.256Z,71.20
2022-09-15T19:39:23.951Z,71.20
2022-09-15T19:41:50.584Z,71.80
2022-09-15T19:44:17.374Z,71.10
2022-09-15T19:46:44.186Z,71.10
2022-09-15T19:49:11.469Z,71.10
2022-09-15T19:51:38.322Z,71.10
2022-09-15T19:54:05.321Z,71.00
2022-09-15T19:56:31.943Z,71.10
2022-09-15T19:58:58.951Z,71.10
2022-09-15T20:01:27.461Z,71.00
2022-09-15T20:06:40.184Z,71.10
2022-09-15T20:09:07.654Z,71.10
2022-09-15T20:11:34.923Z,71.40
2022-09-15T20:14:01.848Z,71.10
2022-09-15T20:16:28.999Z,71.60
2022-09-15T20:18:55.946Z,71.10
2022-09-15T20:21:51.765Z,71.80
2022-09-15T20:24:19.597Z,71.20
2022-09-15T20:26:46.261Z,71.30
2022-09-15T20:29:13.245Z,71.20
2022-09-15T20:31:39.919Z,71.20
2022-09-15T20:34:06.762Z,71.20
2022-09-15T20:36:35.462Z,71.20
2022-09-15T20:39:03.338Z,71.30
2022-09-15T20:41:31.874Z,71.30
2022-09-15T20:43:58.869Z,71.30
2022-09-15T20:46:26.117Z,71.30
2022-09-15T20:48:53.018Z,71.30
2022-09-15T20:51:23.884Z,71.30
2022-09-15T20:53:51.682Z,71.30
2022-09-15T20:56:21.132Z,71.50
2022-09-15T20:58:47.745Z,71.20
2022-09-15T21:01:20.028Z,71.30
2022-09-15T21:03:47.762Z,71.30
2022-09-15T21:06:15.462Z,71.30
2022-09-15T21:08:42.138Z,71.30
2022-09-15T21:11:10.706Z,71.30
2022-09-15T21:13:38.278Z,71.30
2022-09-15T21:16:08.188Z,71.30
2022-09-15T21:18:36.470Z,71.30
2022-09-15T21:21:05.179Z,71.30
2022-09-15T21:23:33.570Z,71.30
2022-09-15T21:26:02.081Z,71.20
2022-09-15T21:28:29.327Z,71.30
2022-09-15T21:31:03.305Z,70.30
2022-09-15T21:33:30.079Z,71.10
2022-09-15T21:36:07.485Z,71.20
2022-09-15T21:38:34.545Z,71.30
2022-09-15T21:41:01.228Z,71.20
2022-09-15T21:43:31.651Z,71.30
2022-09-15T21:45:58.964Z,71.30
2022-09-15T21:48:27.243Z,71.20
2022-09-15T21:50:54.138Z,71.20
2022-09-15T21:53:21.083Z,71.20
2022-09-15T21:55:50.448Z,71.30
2022-09-15T21:58:21.105Z,71.30
2022-09-15T22:00:48.383Z,71.20
2022-09-15T22:03:16.163Z,71.20
2022-09-15T22:05:43.973Z,71.30
2022-09-15T22:08:11.347Z,71.20
2022-09-15T22:10:38.108Z,71.00
2022-09-15T22:13:05.815Z,71.10
2022-09-15T22:15:32.583Z,71.30
2022-09-15T22:17:59.297Z,71.20
2022-09-15T22:20:26.261Z,71.10
2022-09-15T22:22:52.917Z,71.10
2022-09-15T22:25:21.883Z,71.20
2022-09-15T22:27:48.784Z,71.20
2022-09-15T22:30:15.499Z,71.10
2022-09-15T22:32:42.165Z,71.10
2022-09-15T22:35:08.960Z,71.10
2022-09-15T22:37:35.768Z,71.10
2022-09-15T22:40:02.614Z,71.10
2022-09-15T22:42:29.308Z,71.00
2022-09-15T22:44:55.923Z,71.00
2022-09-15T22:47:22.736Z,71.10
2022-09-15T22:49:49.395Z,71.10
2022-09-15T22:52:16.190Z,71.00
2022-09-15T22:54:42.818Z,71.00
2022-09-15T22:57:09.621Z,70.90
2022-09-15T22:59:36.269Z,71.00
2022-09-15T23:02:02.971Z,70.90
2022-09-15T23:04:29.668Z,70.90
2022-09-15T23:06:56.307Z,70.90
2022-09-15T23:09:22.927Z,70.90
2022-09-15T23:11:49.566Z,70.90
2022-09-15T23:14:17.281Z,70.90
2022-09-15T23:16:44.262Z,71.40
2022-09-15T23:19:14.416Z,70.80
2022-09-15T23:21:41.041Z,70.90
2022-09-15T23:24:08.725Z,71.40
2022-09-15T23:26:35.450Z,71.90
2022-09-15T23:29:02.129Z,71.00
2022-09-15T23:31:28.998Z,70.90
2022-09-15T23:33:55.684Z,70.80
2022-09-15T23:36:22.396Z,70.80
2022-09-15T23:38:49.547Z,70.90
2022-09-15T23:41:16.696Z,70.70
2022-09-15T23:43:43.687Z,70.80
2022-09-15T23:46:10.576Z,70.90
2022-09-15T23:48:37.343Z,70.80
2022-09-15T23:51:04.336Z,71.60
2022-09-15T23:53:31.043Z,70.90
2022-09-15T23:55:57.736Z,70.80
2022-09-15T23:58:24.809Z,70.80
